createdAt,value
2023-05-17T00:02:08.479Z,0.83
2023-05-17T00:04:35.700Z,0.60
2023-05-17T00:07:03.124Z,0.70
2023-05-17T00:09:30.364Z,0.60
2023-05-17T00:11:57.455Z,0.77
2023-05-17T00:14:25.014Z,1.00
2023-05-17T00:16:52.715Z,1.20
2023-05-17T00:19:20.006Z,1.13
2023-05-17T00:21:47.600Z,1.10
2023-05-17T00:24:14.750Z,0.90
2023-05-17T00:26:41.826Z,0.90
2023-05-17T00:29:09.012Z,1.00
2023-05-17T00:31:36.101Z,0.90
2023-05-17T00:34:03.242Z,0.97
2023-05-17T00:36:30.892Z,0.90
2023-05-17T00:38:57.979Z,1.10
2023-05-17T00:41:25.146Z,1.20
2023-05-17T00:43:52.308Z,1.20
2023-05-17T00:46:19.377Z,1.40
2023-05-17T00:48:46.598Z,1.13
2023-05-17T00:51:16.181Z,1.00
2023-05-17T00:53:43.413Z,1.10
2023-05-17T00:56:10.668Z,3.70
2023-05-17T00:58:38.390Z,4.90
2023-05-17T01:01:05.690Z,2.77
2023-05-17T01:03:33.115Z,2.03
2023-05-17T01:06:00.379Z,1.70
2023-05-17T01:08:27.489Z,1.43
2023-05-17T01:11:12.189Z,1.80
2023-05-17T01:14:06.582Z,1.43
2023-05-17T01:16:44.295Z,1.30
2023-05-17T01:19:50.068Z,2.17
2023-05-17T01:23:03.332Z,1.60
2023-05-17T01:26:16.373Z,2.17
2023-05-17T01:28:52.562Z,1.50
2023-05-17T01:31:20.680Z,1.60
2023-05-17T01:33:48.182Z,1.50
2023-05-17T01:36:15.455Z,1.97
2023-05-17T01:38:42.490Z,1.83
2023-05-17T01:41:40.258Z,2.10
2023-05-17T01:44:30.796Z,2.17
2023-05-17T01:47:28.067Z,2.13
2023-05-17T01:49:59.088Z,1.97
2023-05-17T01:53:11.802Z,2.20
2023-05-17T01:55:50.654Z,2.20
2023-05-17T01:58:21.784Z,2.47
2023-05-17T02:00:52.384Z,2.20
2023-05-17T02:03:20.683Z,2.00
2023-05-17T02:05:48.000Z,2.73
2023-05-17T02:08:15.116Z,1.97
2023-05-17T02:10:45.211Z,2.30
2023-05-17T02:13:12.892Z,2.57
2023-05-17T02:15:40.026Z,2.60
2023-05-17T02:18:07.359Z,2.50
2023-05-17T02:20:34.536Z,2.70
2023-05-17T02:23:01.670Z,3.10
2023-05-17T02:25:28.940Z,3.00
2023-05-17T02:27:56.413Z,2.60
2023-05-17T02:30:24.738Z,1.87
2023-05-17T02:32:52.314Z,3.07
2023-05-17T02:35:19.651Z,2.67
2023-05-17T02:37:48.974Z,3.03
2023-05-17T02:40:16.082Z,2.80
2023-05-17T02:42:46.576Z,2.60
2023-05-17T02:45:13.660Z,2.70
2023-05-17T02:47:41.488Z,2.67
2023-05-17T02:50:09.610Z,2.53
2023-05-17T02:52:36.737Z,3.27
2023-05-17T02:55:04.940Z,2.87
2023-05-17T02:57:32.024Z,2.77
2023-05-17T02:59:59.176Z,2.73
2023-05-17T03:02:28.009Z,3.03
2023-05-17T03:04:55.291Z,2.60
2023-05-17T03:07:22.449Z,3.33
2023-05-17T03:09:49.555Z,2.70
2023-05-17T03:12:16.692Z,2.80
2023-05-17T03:14:43.841Z,2.50
2023-05-17T03:17:11.949Z,2.90
2023-05-17T03:19:39.121Z,2.77
2023-05-17T03:22:06.354Z,3.30
2023-05-17T03:24:33.507Z,2.90
2023-05-17T03:27:00.854Z,2.60
2023-05-17T03:29:27.987Z,2.93
2023-05-17T03:31:55.080Z,3.07
2023-05-17T03:34:22.239Z,2.70
2023-05-17T03:36:49.357Z,3.10
2023-05-17T03:39:16.407Z,2.67
2023-05-17T03:41:43.559Z,3.00
2023-05-17T03:44:10.767Z,2.70
2023-05-17T03:46:37.926Z,2.77
2023-05-17T03:49:05.129Z,2.83
2023-05-17T03:51:32.392Z,1.97
2023-05-17T03:54:03.597Z,2.97
2023-05-17T03:56:31.711Z,2.70
2023-05-17T03:59:02.098Z,2.50
2023-05-17T04:01:29.233Z,2.97
2023-05-17T04:03:56.510Z,2.77
2023-05-17T04:06:24.489Z,2.77
2023-05-17T04:08:51.688Z,3.20
2023-05-17T04:11:25.669Z,2.60
2023-05-17T04:13:53.577Z,2.67
2023-05-17T04:16:21.217Z,3.07
2023-05-17T04:18:52.591Z,2.97
2023-05-17T04:21:20.092Z,3.40
2023-05-17T04:23:50.268Z,3.50
2023-05-17T04:26:17.566Z,2.70
2023-05-17T04:28:44.757Z,3.40
2023-05-17T04:31:17.887Z,3.20
2023-05-17T04:33:45.300Z,3.43
2023-05-17T04:36:12.438Z,3.07
2023-05-17T04:38:42.382Z,3.30
2023-05-17T04:41:09.637Z,3.30
2023-05-17T04:43:38.254Z,3.13
2023-05-17T04:46:05.926Z,3.40
2023-05-17T04:48:33.595Z,3.37
2023-05-17T04:51:05.138Z,3.07
2023-05-17T04:53:32.503Z,2.73
2023-05-17T04:55:59.710Z,3.30
2023-05-17T04:58:26.970Z,2.87
2023-05-17T05:00:54.186Z,3.07
2023-05-17T05:03:23.049Z,3.47
2023-05-17T05:05:50.987Z,3.37
2023-05-17T05:08:18.155Z,3.30
2023-05-17T05:10:46.073Z,3.20
2023-05-17T05:13:13.200Z,3.30
2023-05-17T05:15:40.432Z,3.03
2023-05-17T05:18:07.657Z,3.20
2023-05-17T05:20:34.918Z,3.63
2023-05-17T05:23:03.898Z,3.27
2023-05-17T05:25:34.229Z,3.70
2023-05-17T05:28:01.452Z,3.13
2023-05-17T05:30:28.633Z,3.07
2023-05-17T05:32:56.006Z,2.97
2023-05-17T05:35:29.247Z,3.00
2023-05-17T05:38:00.137Z,3.47
2023-05-17T05:40:29.748Z,3.27
2023-05-17T05:42:59.368Z,2.93
2023-05-17T05:45:26.513Z,1.93
2023-05-17T05:47:53.790Z,2.97
2023-05-17T05:50:21.161Z,2.50
2023-05-17T05:52:48.270Z,2.17
2023-05-17T05:55:15.426Z,2.80
2023-05-17T05:57:42.564Z,2.10
2023-05-17T06:00:18.480Z,2.23
2023-05-17T06:02:45.680Z,2.63
2023-05-17T06:05:15.115Z,1.93
2023-05-17T06:07:42.316Z,2.10
2023-05-17T06:10:10.381Z,2.03
2023-05-17T06:12:42.072Z,2.20
2023-05-17T06:15:10.163Z,2.77
2023-05-17T06:17:37.414Z,2.33
2023-05-17T06:20:05.340Z,1.77
2023-05-17T06:22:32.488Z,1.77
2023-05-17T06:24:59.764Z,2.00
2023-05-17T06:27:27.215Z,1.90
2023-05-17T06:29:54.376Z,2.30
2023-05-17T06:32:21.724Z,1.80
2023-05-17T06:34:51.176Z,1.60
2023-05-17T06:37:18.386Z,1.77
2023-05-17T06:39:55.947Z,2.13
2023-05-17T06:42:27.084Z,2.03
2023-05-17T06:44:54.487Z,1.93
2023-05-17T06:47:21.680Z,2.60
2023-05-17T06:49:50.208Z,2.10
2023-05-17T06:52:18.271Z,1.67
2023-05-17T06:54:45.457Z,1.47
2023-05-17T06:57:15.043Z,1.90
2023-05-17T06:59:42.140Z,1.80
2023-05-17T07:02:09.405Z,2.10
2023-05-17T07:04:37.124Z,1.40
2023-05-17T07:07:04.346Z,1.70
2023-05-17T07:09:31.550Z,1.63
2023-05-17T07:11:58.904Z,1.60
2023-05-17T07:14:26.068Z,1.57
2023-05-17T07:16:53.249Z,1.77
2023-05-17T07:19:29.993Z,2.30
2023-05-17T07:21:57.363Z,1.77
2023-05-17T07:24:24.586Z,1.20
2023-05-17T07:26:52.648Z,1.60
2023-05-17T07:29:20.025Z,1.97
2023-05-17T07:31:47.136Z,1.27
2023-05-17T07:34:14.550Z,1.77
2023-05-17T07:36:42.361Z,1.60
2023-05-17T07:39:09.995Z,1.70
2023-05-17T07:41:37.352Z,1.57
2023-05-17T07:44:06.078Z,1.27
2023-05-17T07:46:33.265Z,1.77
2023-05-17T07:49:00.523Z,1.33
2023-05-17T07:51:27.750Z,1.50
2023-05-17T07:53:58.100Z,1.90
2023-05-17T07:56:25.640Z,1.43
2023-05-17T07:58:52.914Z,1.40
2023-05-17T08:01:20.245Z,1.30
2023-05-17T08:03:50.218Z,1.80
2023-05-17T08:06:21.792Z,1.17
2023-05-17T08:08:48.938Z,1.43
2023-05-17T08:11:17.833Z,1.27
2023-05-17T08:13:45.539Z,1.73
2023-05-17T08:16:15.826Z,1.87
2023-05-17T08:18:43.912Z,1.70
2023-05-17T08:21:11.816Z,1.63
2023-05-17T08:23:41.718Z,1.30
2023-05-17T08:26:09.233Z,1.03
2023-05-17T08:28:37.094Z,1.03
2023-05-17T08:31:04.952Z,1.13
2023-05-17T08:33:34.425Z,1.83
2023-05-17T08:36:03.134Z,1.70
2023-05-17T08:38:30.381Z,1.27
2023-05-17T08:40:59.689Z,1.30
2023-05-17T08:43:28.232Z,1.43
2023-05-17T08:45:58.251Z,1.40
2023-05-17T08:48:27.472Z,1.50
2023-05-17T08:50:57.987Z,1.77
2023-05-17T08:53:28.724Z,1.27
2023-05-17T08:56:01.430Z,0.93
2023-05-17T08:58:52.336Z,1.10
2023-05-17T09:01:26.487Z,1.20
2023-05-17T09:03:54.839Z,1.40
2023-05-17T09:06:24.466Z,1.67
2023-05-17T09:08:55.857Z,1.70
2023-05-17T09:11:33.054Z,1.60
2023-05-17T09:14:04.747Z,1.20
2023-05-17T09:16:37.725Z,1.83
2023-05-17T09:19:07.572Z,1.17
2023-05-17T09:21:37.530Z,1.23
2023-05-17T09:24:08.331Z,1.27
2023-05-17T09:26:45.470Z,1.10
2023-05-17T09:29:16.265Z,1.70
2023-05-17T09:31:47.532Z,1.53
2023-05-17T09:34:24.368Z,1.40
2023-05-17T09:36:52.144Z,1.40
2023-05-17T09:39:19.822Z,1.10
2023-05-17T09:41:49.865Z,1.30
2023-05-17T09:44:20.204Z,1.20
2023-05-17T09:46:48.925Z,1.30
2023-05-17T09:49:20.982Z,1.23
2023-05-17T09:51:50.098Z,1.23
2023-05-17T09:54:19.461Z,1.10
2023-05-17T09:56:55.683Z,1.10
2023-05-17T09:59:25.833Z,1.30
2023-05-17T10:01:54.384Z,1.57
2023-05-17T10:04:25.690Z,1.57
2023-05-17T10:06:54.988Z,1.30
2023-05-17T10:09:23.530Z,1.80
2023-05-17T10:11:56.516Z,1.40
2023-05-17T10:14:34.974Z,1.40
2023-05-17T10:17:03.451Z,1.40
2023-05-17T10:19:32.941Z,1.40
2023-05-17T10:24:39.556Z,1.60
2023-05-17T10:27:14.337Z,1.07
2023-05-17T10:29:43.471Z,1.60
2023-05-17T10:32:13.585Z,1.17
2023-05-17T10:34:42.340Z,0.90
2023-05-17T10:37:16.788Z,1.23
2023-05-17T10:39:46.762Z,1.50
2023-05-17T10:42:16.340Z,1.23
2023-05-17T10:44:43.726Z,1.53
2023-05-17T10:47:14.555Z,1.23
2023-05-17T10:49:47.975Z,0.97
2023-05-17T10:52:23.749Z,1.30
2023-05-17T10:54:51.790Z,1.60
2023-05-17T10:57:50.708Z,1.40
2023-05-17T11:00:27.860Z,1.33
2023-05-17T11:03:19.709Z,1.13
2023-05-17T11:06:25.384Z,1.30
2023-05-17T11:13:29.583Z,1.60
2023-05-17T11:16:17.381Z,2.03
2023-05-17T11:18:54.843Z,1.53
2023-05-17T11:21:23.145Z,1.50
2023-05-17T11:23:58.331Z,1.10
2023-05-17T11:26:38.114Z,1.37
2023-05-17T11:29:10.879Z,1.50
2023-05-17T11:31:45.425Z,1.50
2023-05-17T11:34:13.203Z,1.33
2023-05-17T11:36:55.823Z,1.40
2023-05-17T11:39:25.340Z,1.17
2023-05-17T11:41:55.944Z,1.23
2023-05-17T11:44:34.766Z,1.30
2023-05-17T11:47:11.613Z,1.33
2023-05-17T11:49:40.897Z,1.30
2023-05-17T11:52:08.788Z,1.33
2023-05-17T11:54:40.344Z,1.20
2023-05-17T11:57:08.680Z,1.33
2023-05-17T11:59:40.042Z,1.37
2023-05-17T12:02:08.665Z,1.50
2023-05-17T12:04:38.780Z,1.23
2023-05-17T12:07:10.542Z,1.43
2023-05-17T12:09:45.041Z,1.10
2023-05-17T12:12:21.838Z,1.50
2023-05-17T12:14:50.754Z,1.03
2023-05-17T12:17:33.292Z,1.30
2023-05-17T12:20:11.033Z,1.10
2023-05-17T12:22:57.257Z,1.20
2023-05-17T12:25:27.640Z,1.37
2023-05-17T12:28:22.491Z,1.50
2023-05-17T12:30:55.800Z,1.55
2023-05-17T12:33:23.382Z,1.60
2023-05-17T12:35:50.754Z,1.25
2023-05-17T12:38:19.707Z,1.20
2023-05-17T12:40:47.160Z,1.33
2023-05-17T12:43:14.401Z,1.15
2023-05-17T12:45:44.657Z,1.08
2023-05-17T12:48:11.921Z,1.30
2023-05-17T12:50:44.374Z,1.65
2023-05-17T12:53:15.363Z,1.67
2023-05-17T12:55:42.936Z,1.33
2023-05-17T12:58:10.032Z,1.40
2023-05-17T13:00:37.255Z,1.08
2023-05-17T13:03:11.609Z,1.92
2023-05-17T13:05:41.259Z,1.85
2023-05-17T13:08:24.631Z,1.48
2023-05-17T13:10:51.766Z,1.73
2023-05-17T13:13:21.076Z,1.38
2023-05-17T13:15:48.438Z,1.98
2023-05-17T13:18:16.259Z,1.60
2023-05-17T13:20:44.009Z,1.48
2023-05-17T13:23:11.199Z,1.30
2023-05-17T13:25:38.329Z,1.45
2023-05-17T13:28:05.690Z,1.70
2023-05-17T13:30:35.152Z,1.60
2023-05-17T13:33:02.373Z,1.50
2023-05-17T13:35:31.898Z,1.50
2023-05-17T13:37:58.998Z,1.52
2023-05-17T13:40:26.331Z,1.40
2023-05-17T13:42:53.649Z,1.45
2023-05-17T13:45:23.209Z,1.55
2023-05-17T13:47:50.914Z,1.73
2023-05-17T13:50:28.239Z,1.38
2023-05-17T13:52:58.899Z,1.50
2023-05-17T13:55:26.108Z,1.33
2023-05-17T13:57:53.977Z,1.30
2023-05-17T14:00:21.863Z,1.65
2023-05-17T14:02:49.798Z,1.20
2023-05-17T14:05:18.027Z,1.73
2023-05-17T14:07:46.117Z,1.40
2023-05-17T14:10:13.458Z,1.73
2023-05-17T14:12:42.070Z,1.13
2023-05-17T14:15:10.715Z,1.50
2023-05-17T14:17:38.572Z,1.50
2023-05-17T14:20:07.414Z,1.52
2023-05-17T14:22:34.592Z,1.52
2023-05-17T14:25:03.334Z,1.55
2023-05-17T14:27:30.564Z,1.45
2023-05-17T14:30:04.358Z,1.52
2023-05-17T14:32:31.570Z,1.60
2023-05-17T14:34:58.915Z,1.40
2023-05-17T14:37:26.585Z,1.40
2023-05-17T14:40:07.031Z,1.42
2023-05-17T14:42:34.376Z,1.20
2023-05-17T14:45:01.724Z,1.35
2023-05-17T14:47:28.993Z,1.33
2023-05-17T14:49:56.415Z,1.42
2023-05-17T14:52:23.709Z,1.63
2023-05-17T14:54:50.824Z,1.35
2023-05-17T14:57:18.690Z,1.55
2023-05-17T14:59:45.881Z,1.60
2023-05-17T15:02:13.354Z,1.60
2023-05-17T15:04:40.626Z,1.60
2023-05-17T15:07:11.630Z,1.67
2023-05-17T15:09:41.940Z,1.25
2023-05-17T15:12:14.221Z,1.80
2023-05-17T15:14:41.437Z,1.48
2023-05-17T15:17:09.885Z,1.92
2023-05-17T15:19:37.333Z,1.45
2023-05-17T15:22:07.649Z,1.50
2023-05-17T15:24:34.849Z,1.45
2023-05-17T15:27:02.028Z,0.98
2023-05-17T15:29:30.953Z,2.10
2023-05-17T15:31:59.254Z,2.42
2023-05-17T15:34:26.969Z,1.98
2023-05-17T15:36:56.504Z,2.20
2023-05-17T15:39:24.020Z,2.75
2023-05-17T15:41:51.182Z,10.50
2023-05-17T15:44:19.224Z,4.45
2023-05-17T15:46:46.928Z,4.38
2023-05-17T15:49:14.101Z,3.35
2023-05-17T15:51:41.254Z,3.22
2023-05-17T15:54:08.640Z,4.10
2023-05-17T15:56:38.216Z,2.00
2023-05-17T15:59:07.162Z,1.73
2023-05-17T16:01:34.508Z,2.00
2023-05-17T16:04:01.695Z,1.88
2023-05-17T16:06:34.778Z,1.95
2023-05-17T16:09:03.076Z,1.70
2023-05-17T16:11:30.367Z,1.60
2023-05-17T16:13:57.605Z,1.73
2023-05-17T16:16:24.796Z,1.70
2023-05-17T16:18:52.313Z,2.00
2023-05-17T16:21:22.542Z,1.67
2023-05-17T16:23:49.762Z,2.25
2023-05-17T16:26:16.972Z,1.90
2023-05-17T16:28:44.600Z,1.60
2023-05-17T16:31:11.867Z,1.92
2023-05-17T16:33:40.110Z,1.95
2023-05-17T16:36:08.845Z,1.73
2023-05-17T16:38:36.287Z,2.33
2023-05-17T16:41:03.598Z,2.40
2023-05-17T16:43:31.374Z,2.35
2023-05-17T16:45:58.546Z,2.72
2023-05-17T16:48:25.766Z,2.38
2023-05-17T16:50:53.027Z,1.40
2023-05-17T16:53:20.402Z,1.27
2023-05-17T16:55:47.653Z,1.55
2023-05-17T16:58:15.141Z,1.33
2023-05-17T17:00:42.435Z,0.93
2023-05-17T17:03:10.128Z,1.20
2023-05-17T17:05:37.519Z,1.47
2023-05-17T17:08:04.978Z,1.20
2023-05-17T17:10:32.316Z,1.13
2023-05-17T17:12:59.477Z,1.50
2023-05-17T17:15:26.750Z,1.10
2023-05-17T17:17:53.861Z,1.43
2023-05-17T17:20:21.629Z,1.30
2023-05-17T17:22:48.758Z,1.30
2023-05-17T17:25:16.142Z,1.20
2023-05-17T17:27:43.908Z,2.03
2023-05-17T17:30:12.337Z,1.10
2023-05-17T17:32:39.615Z,1.33
2023-05-17T17:35:07.926Z,1.10
2023-05-17T17:37:35.041Z,0.97
2023-05-17T17:40:03.189Z,1.37
2023-05-17T17:42:32.094Z,1.43
2023-05-17T17:44:59.485Z,0.97
2023-05-17T17:47:26.617Z,1.20
2023-05-17T17:49:54.155Z,1.30
2023-05-17T17:52:21.254Z,1.53
2023-05-17T17:54:48.329Z,0.93
2023-05-17T17:57:15.540Z,0.90
2023-05-17T17:59:42.686Z,1.20
2023-05-17T18:02:09.975Z,1.40
2023-05-17T18:04:37.115Z,1.20
2023-05-17T18:07:04.353Z,1.30
2023-05-17T18:09:31.594Z,1.37
2023-05-17T18:11:59.983Z,1.37
2023-05-17T18:14:27.098Z,0.90
2023-05-17T18:16:54.288Z,1.20
2023-05-17T18:19:21.432Z,1.10
2023-05-17T18:21:51.126Z,1.33
2023-05-17T18:24:18.374Z,1.23
2023-05-17T18:26:45.499Z,1.07
2023-05-17T18:29:12.598Z,1.20
2023-05-17T18:31:39.755Z,1.30
2023-05-17T18:34:06.937Z,1.00
2023-05-17T18:36:34.247Z,1.40
2023-05-17T18:39:01.480Z,1.37
2023-05-17T18:41:28.697Z,1.20
2023-05-17T18:44:01.504Z,1.03
2023-05-17T18:46:32.105Z,1.13
2023-05-17T18:48:59.478Z,0.87
2023-05-17T18:51:28.947Z,1.17
2023-05-17T18:53:56.144Z,1.40
2023-05-17T18:56:25.047Z,1.37
2023-05-17T18:58:55.430Z,1.20
2023-05-17T19:01:22.700Z,1.37
2023-05-17T19:03:51.691Z,0.90
2023-05-17T19:06:19.709Z,1.10
2023-05-17T19:08:49.423Z,1.20
2023-05-17T19:11:17.716Z,1.40
2023-05-17T19:13:45.424Z,1.90
2023-05-17T19:16:12.763Z,1.30
2023-05-17T19:18:39.924Z,1.60
2023-05-17T19:21:07.386Z,1.63
2023-05-17T19:23:36.030Z,1.20
2023-05-17T19:26:03.381Z,1.40
2023-05-17T19:28:35.612Z,1.30
2023-05-17T19:31:04.138Z,1.13
2023-05-17T19:33:32.018Z,1.30
2023-05-17T19:35:59.156Z,1.97
2023-05-17T19:38:26.269Z,1.40
2023-05-17T19:40:53.454Z,1.63
2023-05-17T19:43:20.623Z,1.50
2023-05-17T19:45:47.816Z,1.37
2023-05-17T19:48:14.941Z,1.80
2023-05-17T19:50:42.188Z,1.60
2023-05-17T19:53:09.309Z,2.00
2023-05-17T19:55:36.653Z,1.80
2023-05-17T19:58:04.057Z,2.40
2023-05-17T20:00:32.654Z,1.97
2023-05-17T20:02:59.877Z,3.30
2023-05-17T20:05:27.258Z,3.30
2023-05-17T20:07:55.221Z,3.97
2023-05-17T20:10:22.677Z,2.23
2023-05-17T20:12:52.177Z,2.00
2023-05-17T20:15:19.507Z,3.83
2023-05-17T20:17:46.876Z,4.00
2023-05-17T20:20:14.376Z,3.57
2023-05-17T20:22:42.938Z,1.70
2023-05-17T20:25:11.677Z,2.00
2023-05-17T20:27:38.918Z,1.57
2023-05-17T20:30:08.262Z,1.50
2023-05-17T20:32:35.722Z,1.53
2023-05-17T20:35:02.956Z,1.43
2023-05-17T20:37:30.286Z,1.63
2023-05-17T20:39:59.813Z,1.80
2023-05-17T20:42:28.503Z,1.10
2023-05-17T20:44:58.787Z,1.57
2023-05-17T20:47:26.136Z,1.00
2023-05-17T20:49:53.279Z,1.37
2023-05-17T20:52:35.138Z,1.63
2023-05-17T20:55:09.408Z,1.40
2023-05-17T20:57:36.531Z,1.47
2023-05-17T21:00:05.732Z,1.97
2023-05-17T21:02:32.936Z,1.43
2023-05-17T21:05:00.808Z,1.67
2023-05-17T21:07:30.068Z,1.90
2023-05-17T21:09:57.540Z,1.50
2023-05-17T21:12:24.640Z,1.43
2023-05-17T21:15:03.657Z,1.80
2023-05-17T21:17:31.690Z,1.47
2023-05-17T21:19:58.945Z,1.80
2023-05-17T21:22:26.130Z,1.77
2023-05-17T21:24:53.299Z,1.50
2023-05-17T21:27:20.597Z,1.30
2023-05-17T21:29:47.726Z,1.80
2023-05-17T21:32:14.955Z,1.83
2023-05-17T21:34:43.295Z,1.80
2023-05-17T21:37:10.628Z,1.87
2023-05-17T21:39:37.731Z,2.73
2023-05-17T21:42:05.165Z,2.57
2023-05-17T21:44:32.298Z,5.00
2023-05-17T21:46:59.704Z,4.37
2023-05-17T21:49:28.411Z,4.07
2023-05-17T21:51:55.842Z,3.87
2023-05-17T21:54:24.839Z,2.93
2023-05-17T21:56:52.992Z,2.53
2023-05-17T21:59:20.135Z,1.87
2023-05-17T22:01:47.362Z,1.67
2023-05-17T22:04:14.560Z,1.93
2023-05-17T22:06:41.675Z,1.90
2023-05-17T22:09:09.419Z,2.37
2023-05-17T22:11:38.531Z,2.67
2023-05-17T22:14:07.372Z,2.50
2023-05-17T22:16:36.013Z,3.20
2023-05-17T22:19:03.913Z,3.00
2023-05-17T22:21:32.236Z,2.67
2023-05-17T22:23:59.780Z,1.57
2023-05-17T22:26:27.778Z,1.93
2023-05-17T22:28:55.940Z,1.60
2023-05-17T22:31:23.124Z,2.20
2023-05-17T22:33:52.029Z,1.83
2023-05-17T22:36:19.472Z,1.57
2023-05-17T22:38:46.655Z,1.77
2023-05-17T22:41:13.929Z,1.40
2023-05-17T22:43:41.649Z,1.73
2023-05-17T22:46:11.083Z,1.70
2023-05-17T22:48:38.507Z,1.63
2023-05-17T22:51:05.890Z,1.70
2023-05-17T22:53:33.040Z,1.60
2023-05-17T22:56:00.165Z,1.90
2023-05-17T22:58:27.337Z,2.23
2023-05-17T23:00:54.534Z,1.53
2023-05-17T23:03:21.682Z,1.03
2023-05-17T23:05:49.109Z,1.30
2023-05-17T23:08:16.276Z,1.53
2023-05-17T23:10:46.345Z,1.70
2023-05-17T23:13:13.906Z,1.77
2023-05-17T23:15:46.102Z,1.70
2023-05-17T23:18:13.349Z,1.37
2023-05-17T23:20:42.974Z,1.30
2023-05-17T23:23:10.294Z,1.57
2023-05-17T23:25:37.386Z,1.40
2023-05-17T23:28:05.554Z,1.07
2023-05-17T23:30:33.446Z,1.60
2023-05-17T23:33:02.939Z,2.27
2023-05-17T23:35:30.369Z,1.20
2023-05-17T23:37:57.795Z,1.50
2023-05-17T23:40:24.942Z,1.20
2023-05-17T23:42:52.170Z,0.77
2023-05-17T23:45:19.501Z,0.80
2023-05-17T23:47:47.523Z,1.10
2023-05-17T23:50:14.869Z,0.80
2023-05-17T23:52:43.434Z,0.83
2023-05-17T23:55:12.173Z,1.07
2023-05-17T23:57:40.062Z,1.03
